sensor_id;sensor_type;location;lat;lon;timestamp;P1;durP1;ratioP1;P2;durP2;ratioP2
30515;SDS011;17297;54.022;10.760;2023-03-03T00:02:03;13.90;;;8.02;;
30515;SDS011;17297;54.022;10.760;2023-03-03T00:04:28;13.52;;;7.88;;
30515;SDS011;17297;54.022;10.760;2023-03-03T00:06:54;14.13;;;8.20;;
30515;SDS011;17297;54.022;10.760;2023-03-03T00:09:19;14.73;;;9.10;;
30515;SDS011;17297;54.022;10.760;2023-03-03T00:11:45;15.00;;;8.82;;
30515;SDS011;17297;54.022;10.760;2023-03-03T00:14:35;12.55;;;7.65;;
30515;SDS011;17297;54.022;10.760;2023-03-03T00:17:00;12.20;;;8.48;;
30515;SDS011;17297;54.022;10.760;2023-03-03T00:19:36;12.65;;;7.53;;
30515;SDS011;17297;54.022;10.760;2023-03-03T00:22:06;16.05;;;8.52;;
30515;SDS011;17297;54.022;10.760;2023-03-03T00:24:46;14.80;;;8.88;;
30515;SDS011;17297;54.022;10.760;2023-03-03T00:27:27;14.52;;;8.98;;
30515;SDS011;17297;54.022;10.760;2023-03-03T00:29:55;12.95;;;7.93;;
30515;SDS011;17297;54.022;10.760;2023-03-03T00:35:29;12.27;;;7.35;;
30515;SDS011;17297;54.022;10.760;2023-03-03T00:40:59;14.52;;;7.93;;
30515;SDS011;17297;54.022;10.760;2023-03-03T00:43:27;13.23;;;7.97;;
30515;SDS011;17297;54.022;10.760;2023-03-03T00:46:00;12.35;;;7.82;;
30515;SDS011;17297;54.022;10.760;2023-03-03T00:51:01;14.15;;;8.65;;
30515;SDS011;17297;54.022;10.760;2023-03-03T00:53:42;11.68;;;8.13;;
30515;SDS011;17297;54.022;10.760;2023-03-03T00:56:08;11.90;;;7.72;;
30515;SDS011;17297;54.022;10.760;2023-03-03T00:58:34;11.45;;;7.63;;
30515;SDS011;17297;54.022;10.760;2023-03-03T01:01:00;13.35;;;8.20;;
30515;SDS011;17297;54.022;10.760;2023-03-03T01:03:36;13.18;;;7.80;;
30515;SDS011;17297;54.022;10.760;2023-03-03T01:06:01;12.25;;;7.90;;
30515;SDS011;17297;54.022;10.760;2023-03-03T01:08:27;13.75;;;8.40;;
30515;SDS011;17297;54.022;10.760;2023-03-03T01:10:56;13.20;;;8.15;;
30515;SDS011;17297;54.022;10.760;2023-03-03T01:13:26;13.30;;;8.30;;
30515;SDS011;17297;54.022;10.760;2023-03-03T01:15:54;13.85;;;8.05;;
30515;SDS011;17297;54.022;10.760;2023-03-03T01:18:20;12.50;;;7.93;;
30515;SDS011;17297;54.022;10.760;2023-03-03T01:20:45;13.38;;;8.48;;
30515;SDS011;17297;54.022;10.760;2023-03-03T01:23:11;13.43;;;8.35;;
30515;SDS011;17297;54.022;10.760;2023-03-03T01:25:37;13.98;;;8.15;;
30515;SDS011;17297;54.022;10.760;2023-03-03T01:28:04;11.18;;;7.47;;
30515;SDS011;17297;54.022;10.760;2023-03-03T01:30:30;14.63;;;8.02;;
30515;SDS011;17297;54.022;10.760;2023-03-03T01:32:55;11.95;;;7.63;;
30515;SDS011;17297;54.022;10.760;2023-03-03T01:35:22;14.25;;;8.32;;
30515;SDS011;17297;54.022;10.760;2023-03-03T01:37:48;13.60;;;8.52;;
30515;SDS011;17297;54.022;10.760;2023-03-03T01:40:17;13.55;;;8.15;;
30515;SDS011;17297;54.022;10.760;2023-03-03T01:42:44;13.98;;;8.80;;
30515;SDS011;17297;54.022;10.760;2023-03-03T01:45:11;12.35;;;6.95;;
30515;SDS011;17297;54.022;10.760;2023-03-03T01:47:48;11.90;;;7.32;;
30515;SDS011;17297;54.022;10.760;2023-03-03T01:51:05;12.40;;;7.75;;
30515;SDS011;17297;54.022;10.760;2023-03-03T01:53:15;12.63;;;7.40;;
30515;SDS011;17297;54.022;10.760;2023-03-03T01:55:47;13.05;;;8.20;;
30515;SDS011;17297;54.022;10.760;2023-03-03T01:58:34;12.23;;;8.40;;
30515;SDS011;17297;54.022;10.760;2023-03-03T02:01:07;12.68;;;8.20;;
30515;SDS011;17297;54.022;10.760;2023-03-03T02:06:05;11.45;;;8.02;;
30515;SDS011;17297;54.022;10.760;2023-03-03T02:08:38;9.63;;;6.25;;
30515;SDS011;17297;54.022;10.760;2023-03-03T02:11:13;13.23;;;7.88;;
30515;SDS011;17297;54.022;10.760;2023-03-03T02:13:39;15.57;;;8.48;;
30515;SDS011;17297;54.022;10.760;2023-03-03T02:16:04;11.95;;;7.18;;
30515;SDS011;17297;54.022;10.760;2023-03-03T02:18:30;13.68;;;7.90;;
30515;SDS011;17297;54.022;10.760;2023-03-03T02:20:57;10.20;;;7.43;;
30515;SDS011;17297;54.022;10.760;2023-03-03T02:24:03;11.68;;;7.68;;
30515;SDS011;17297;54.022;10.760;2023-03-03T02:26:42;9.80;;;7.55;;
30515;SDS011;17297;54.022;10.760;2023-03-03T02:29:09;11.45;;;7.32;;
30515;SDS011;17297;54.022;10.760;2023-03-03T02:31:36;14.85;;;8.55;;
30515;SDS011;17297;54.022;10.760;2023-03-03T02:34:03;12.65;;;8.57;;
30515;SDS011;17297;54.022;10.760;2023-03-03T02:36:30;13.40;;;8.15;;
30515;SDS011;17297;54.022;10.760;2023-03-03T02:39:15;13.90;;;9.48;;
30515;SDS011;17297;54.022;10.760;2023-03-03T02:44:39;9.90;;;6.38;;
30515;SDS011;17297;54.022;10.760;2023-03-03T02:47:05;12.10;;;7.75;;
30515;SDS011;17297;54.022;10.760;2023-03-03T02:49:32;12.18;;;8.32;;
30515;SDS011;17297;54.022;10.760;2023-03-03T02:51:59;12.13;;;7.70;;
30515;SDS011;17297;54.022;10.760;2023-03-03T02:54:27;10.75;;;7.18;;
30515;SDS011;17297;54.022;10.760;2023-03-03T02:56:58;12.07;;;7.90;;
30515;SDS011;17297;54.022;10.760;2023-03-03T02:59:25;12.07;;;7.45;;
30515;SDS011;17297;54.022;10.760;2023-03-03T03:01:51;9.98;;;6.90;;
30515;SDS011;17297;54.022;10.760;2023-03-03T03:04:19;14.48;;;8.13;;
30515;SDS011;17297;54.022;10.760;2023-03-03T03:06:50;10.48;;;7.07;;
30515;SDS011;17297;54.022;10.760;2023-03-03T03:09:17;13.18;;;7.03;;
30515;SDS011;17297;54.022;10.760;2023-03-03T03:11:46;12.40;;;7.10;;
30515;SDS011;17297;54.022;10.760;2023-03-03T03:14:14;10.43;;;7.30;;
30515;SDS011;17297;54.022;10.760;2023-03-03T03:16:41;12.10;;;6.65;;
30515;SDS011;17297;54.022;10.760;2023-03-03T03:19:07;10.32;;;6.38;;
30515;SDS011;17297;54.022;10.760;2023-03-03T03:21:34;9.85;;;7.55;;
30515;SDS011;17297;54.022;10.760;2023-03-03T03:24:01;11.27;;;7.07;;
30515;SDS011;17297;54.022;10.760;2023-03-03T03:26:27;10.38;;;7.38;;
30515;SDS011;17297;54.022;10.760;2023-03-03T03:28:53;10.52;;;6.35;;
30515;SDS011;17297;54.022;10.760;2023-03-03T03:31:18;10.27;;;7.30;;
30515;SDS011;17297;54.022;10.760;2023-03-03T03:33:46;9.57;;;6.88;;
30515;SDS011;17297;54.022;10.760;2023-03-03T03:36:13;9.85;;;6.25;;
30515;SDS011;17297;54.022;10.760;2023-03-03T03:38:40;11.52;;;6.90;;
30515;SDS011;17297;54.022;10.760;2023-03-03T03:41:07;9.45;;;6.95;;
30515;SDS011;17297;54.022;10.760;2023-03-03T03:43:33;8.77;;;6.20;;
30515;SDS011;17297;54.022;10.760;2023-03-03T03:46:00;10.93;;;6.47;;
30515;SDS011;17297;54.022;10.760;2023-03-03T03:48:25;9.10;;;6.95;;
30515;SDS011;17297;54.022;10.760;2023-03-03T03:50:52;8.60;;;5.97;;
30515;SDS011;17297;54.022;10.760;2023-03-03T03:53:18;8.35;;;6.20;;
30515;SDS011;17297;54.022;10.760;2023-03-03T03:55:44;7.05;;;5.30;;
30515;SDS011;17297;54.022;10.760;2023-03-03T03:58:14;8.80;;;5.93;;
30515;SDS011;17297;54.022;10.760;2023-03-03T04:00:44;8.73;;;5.82;;
30515;SDS011;17297;54.022;10.760;2023-03-03T04:03:11;7.28;;;5.53;;
30515;SDS011;17297;54.022;10.760;2023-03-03T04:05:39;8.88;;;5.93;;
30515;SDS011;17297;54.022;10.760;2023-03-03T04:08:06;7.45;;;5.35;;
30515;SDS011;17297;54.022;10.760;2023-03-03T04:10:32;6.90;;;5.53;;
30515;SDS011;17297;54.022;10.760;2023-03-03T04:12:58;8.75;;;5.80;;
30515;SDS011;17297;54.022;10.760;2023-03-03T04:15:23;8.95;;;5.88;;
30515;SDS011;17297;54.022;10.760;2023-03-03T04:17:49;9.15;;;5.65;;
30515;SDS011;17297;54.022;10.760;2023-03-03T04:20:15;5.88;;;4.43;;
30515;SDS011;17297;54.022;10.760;2023-03-03T04:22:43;7.15;;;5.25;;
30515;SDS011;17297;54.022;10.760;2023-03-03T04:25:11;9.32;;;6.45;;
30515;SDS011;17297;54.022;10.760;2023-03-03T04:27:40;8.20;;;5.90;;
30515;SDS011;17297;54.022;10.760;2023-03-03T04:30:08;6.43;;;5.43;;
30515;SDS011;17297;54.022;10.760;2023-03-03T04:32:35;7.35;;;5.47;;
30515;SDS011;17297;54.022;10.760;2023-03-03T04:35:03;6.75;;;4.90;;
30515;SDS011;17297;54.022;10.760;2023-03-03T04:37:29;7.30;;;5.18;;
30515;SDS011;17297;54.022;10.760;2023-03-03T04:39:55;6.22;;;5.25;;
30515;SDS011;17297;54.022;10.760;2023-03-03T04:42:21;7.78;;;5.57;;
30515;SDS011;17297;54.022;10.760;2023-03-03T04:44:47;7.80;;;5.18;;
30515;SDS011;17297;54.022;10.760;2023-03-03T04:47:13;7.03;;;5.30;;
30515;SDS011;17297;54.022;10.760;2023-03-03T04:49:39;8.48;;;5.75;;
30515;SDS011;17297;54.022;10.760;2023-03-03T04:52:05;6.88;;;4.93;;
30515;SDS011;17297;54.022;10.760;2023-03-03T04:54:30;7.05;;;5.78;;
30515;SDS011;17297;54.022;10.760;2023-03-03T04:56:56;7.80;;;5.47;;
30515;SDS011;17297;54.022;10.760;2023-03-03T04:59:23;7.20;;;4.68;;
30515;SDS011;17297;54.022;10.760;2023-03-03T05:01:48;7.88;;;6.03;;
30515;SDS011;17297;54.022;10.760;2023-03-03T05:04:15;7.10;;;4.85;;
30515;SDS011;17297;54.022;10.760;2023-03-03T05:06:41;7.22;;;5.47;;
30515;SDS011;17297;54.022;10.760;2023-03-03T05:09:07;7.53;;;5.18;;
30515;SDS011;17297;54.022;10.760;2023-03-03T05:11:33;8.10;;;5.85;;
30515;SDS011;17297;54.022;10.760;2023-03-03T05:13:59;8.38;;;5.95;;
30515;SDS011;17297;54.022;10.760;2023-03-03T05:16:25;8.45;;;6.00;;
30515;SDS011;17297;54.022;10.760;2023-03-03T05:18:50;7.80;;;5.80;;
30515;SDS011;17297;54.022;10.760;2023-03-03T05:21:15;6.72;;;5.43;;
30515;SDS011;17297;54.022;10.760;2023-03-03T05:23:41;8.77;;;5.55;;
30515;SDS011;17297;54.022;10.760;2023-03-03T05:26:07;8.25;;;5.60;;
30515;SDS011;17297;54.022;10.760;2023-03-03T05:28:32;8.32;;;5.63;;
30515;SDS011;17297;54.022;10.760;2023-03-03T05:30:58;6.35;;;4.85;;
30515;SDS011;17297;54.022;10.760;2023-03-03T05:33:23;7.00;;;5.25;;
30515;SDS011;17297;54.022;10.760;2023-03-03T05:35:53;7.85;;;5.57;;
30515;SDS011;17297;54.022;10.760;2023-03-03T05:38:19;9.38;;;5.93;;
30515;SDS011;17297;54.022;10.760;2023-03-03T05:40:45;6.65;;;5.28;;
30515;SDS011;17297;54.022;10.760;2023-03-03T05:43:11;7.85;;;6.32;;
30515;SDS011;17297;54.022;10.760;2023-03-03T05:45:40;7.45;;;5.50;;
30515;SDS011;17297;54.022;10.760;2023-03-03T05:48:05;7.60;;;5.00;;
30515;SDS011;17297;54.022;10.760;2023-03-03T05:50:31;6.53;;;5.32;;
30515;SDS011;17297;54.022;10.760;2023-03-03T05:52:57;7.25;;;5.63;;
30515;SDS011;17297;54.022;10.760;2023-03-03T05:55:22;8.73;;;5.95;;
30515;SDS011;17297;54.022;10.760;2023-03-03T05:57:48;6.93;;;5.30;;
30515;SDS011;17297;54.022;10.760;2023-03-03T06:00:13;7.38;;;5.20;;
30515;SDS011;17297;54.022;10.760;2023-03-03T06:02:40;5.82;;;4.88;;
30515;SDS011;17297;54.022;10.760;2023-03-03T06:05:06;7.10;;;5.00;;
30515;SDS011;17297;54.022;10.760;2023-03-03T06:07:32;6.60;;;4.97;;
30515;SDS011;17297;54.022;10.760;2023-03-03T06:09:58;6.47;;;5.00;;
30515;SDS011;17297;54.022;10.760;2023-03-03T06:12:24;5.90;;;5.03;;
30515;SDS011;17297;54.022;10.760;2023-03-03T06:14:49;7.18;;;5.32;;
30515;SDS011;17297;54.022;10.760;2023-03-03T06:17:15;6.68;;;4.85;;
30515;SDS011;17297;54.022;10.760;2023-03-03T06:19:41;7.18;;;5.45;;
30515;SDS011;17297;54.022;10.760;2023-03-03T06:22:06;8.40;;;5.88;;
30515;SDS011;17297;54.022;10.760;2023-03-03T06:24:33;6.80;;;5.57;;
30515;SDS011;17297;54.022;10.760;2023-03-03T06:26:59;6.47;;;5.47;;
30515;SDS011;17297;54.022;10.760;2023-03-03T06:29:24;7.47;;;5.55;;
30515;SDS011;17297;54.022;10.760;2023-03-03T06:31:51;7.10;;;5.30;;
30515;SDS011;17297;54.022;10.760;2023-03-03T06:34:16;7.40;;;5.38;;
30515;SDS011;17297;54.022;10.760;2023-03-03T06:36:43;6.85;;;5.72;;
30515;SDS011;17297;54.022;10.760;2023-03-03T06:39:09;7.03;;;4.70;;
30515;SDS011;17297;54.022;10.760;2023-03-03T06:41:34;6.18;;;4.50;;
30515;SDS011;17297;54.022;10.760;2023-03-03T06:44:03;6.57;;;4.75;;
30515;SDS011;17297;54.022;10.760;2023-03-03T06:46:29;7.13;;;5.30;;
30515;SDS011;17297;54.022;10.760;2023-03-03T06:48:54;7.18;;;5.25;;
30515;SDS011;17297;54.022;10.760;2023-03-03T06:53:53;6.03;;;5.07;;
30515;SDS011;17297;54.022;10.760;2023-03-03T06:56:22;5.97;;;5.03;;
30515;SDS011;17297;54.022;10.760;2023-03-03T06:58:49;7.10;;;4.72;;
30515;SDS011;17297;54.022;10.760;2023-03-03T07:01:18;6.45;;;4.90;;
30515;SDS011;17297;54.022;10.760;2023-03-03T07:03:43;6.45;;;4.50;;
30515;SDS011;17297;54.022;10.760;2023-03-03T07:06:20;6.20;;;4.45;;
30515;SDS011;17297;54.022;10.760;2023-03-03T07:08:48;6.25;;;4.88;;
30515;SDS011;17297;54.022;10.760;2023-03-03T07:11:15;6.95;;;5.43;;
30515;SDS011;17297;54.022;10.760;2023-03-03T07:13:48;7.72;;;5.22;;
30515;SDS011;17297;54.022;10.760;2023-03-03T07:16:15;7.10;;;4.68;;
30515;SDS011;17297;54.022;10.760;2023-03-03T07:23:46;7.50;;;5.25;;
30515;SDS011;17297;54.022;10.760;2023-03-03T07:26:15;6.28;;;4.15;;
30515;SDS011;17297;54.022;10.760;2023-03-03T07:28:44;5.25;;;4.05;;
30515;SDS011;17297;54.022;10.760;2023-03-03T07:31:51;7.20;;;4.97;;
30515;SDS011;17297;54.022;10.760;2023-03-03T07:36:46;4.90;;;3.65;;
30515;SDS011;17297;54.022;10.760;2023-03-03T07:41:42;5.07;;;4.00;;
30515;SDS011;17297;54.022;10.760;2023-03-03T07:44:18;5.70;;;3.60;;
30515;SDS011;17297;54.022;10.760;2023-03-03T07:46:46;4.38;;;3.67;;
30515;SDS011;17297;54.022;10.760;2023-03-03T07:49:23;5.40;;;3.95;;
30515;SDS011;17297;54.022;10.760;2023-03-03T07:51:58;4.50;;;3.42;;
30515;SDS011;17297;54.022;10.760;2023-03-03T07:59:49;2.83;;;2.28;;
30515;SDS011;17297;54.022;10.760;2023-03-03T08:05:21;3.03;;;2.72;;
30515;SDS011;17297;54.022;10.760;2023-03-03T08:10:45;3.67;;;2.88;;
30515;SDS011;17297;54.022;10.760;2023-03-03T08:13:20;2.88;;;2.50;;
30515;SDS011;17297;54.022;10.760;2023-03-03T08:15:47;3.40;;;2.90;;
30515;SDS011;17297;54.022;10.760;2023-03-03T08:18:21;3.92;;;3.00;;
30515;SDS011;17297;54.022;10.760;2023-03-03T08:20:51;2.97;;;2.70;;
30515;SDS011;17297;54.022;10.760;2023-03-03T08:23:19;2.80;;;2.45;;
30515;SDS011;17297;54.022;10.760;2023-03-03T08:25:46;3.00;;;2.70;;
30515;SDS011;17297;54.022;10.760;2023-03-03T08:28:13;2.97;;;2.70;;
30515;SDS011;17297;54.022;10.760;2023-03-03T08:30:39;5.60;;;3.10;;
30515;SDS011;17297;54.022;10.760;2023-03-03T08:33:05;3.72;;;2.63;;
30515;SDS011;17297;54.022;10.760;2023-03-03T08:35:31;3.38;;;2.67;;
30515;SDS011;17297;54.022;10.760;2023-03-03T08:37:56;4.15;;;2.72;;
30515;SDS011;17297;54.022;10.760;2023-03-03T08:40:23;3.58;;;2.58;;
30515;SDS011;17297;54.022;10.760;2023-03-03T08:42:49;3.08;;;2.78;;
30515;SDS011;17297;54.022;10.760;2023-03-03T08:45:15;3.22;;;2.63;;
30515;SDS011;17297;54.022;10.760;2023-03-03T08:47:41;3.70;;;2.67;;
30515;SDS011;17297;54.022;10.760;2023-03-03T08:50:07;3.03;;;2.67;;
30515;SDS011;17297;54.022;10.760;2023-03-03T08:52:33;3.60;;;2.58;;
30515;SDS011;17297;54.022;10.760;2023-03-03T08:54:59;3.50;;;2.72;;
30515;SDS011;17297;54.022;10.760;2023-03-03T08:57:24;3.42;;;2.33;;
30515;SDS011;17297;54.022;10.760;2023-03-03T08:59:50;3.88;;;2.78;;
30515;SDS011;17297;54.022;10.760;2023-03-03T09:02:15;3.08;;;2.60;;
30515;SDS011;17297;54.022;10.760;2023-03-03T09:04:41;4.78;;;3.10;;
30515;SDS011;17297;54.022;10.760;2023-03-03T09:07:07;4.18;;;3.10;;
30515;SDS011;17297;54.022;10.760;2023-03-03T09:09:33;4.70;;;3.00;;
30515;SDS011;17297;54.022;10.760;2023-03-03T09:12:05;4.15;;;3.25;;
30515;SDS011;17297;54.022;10.760;2023-03-03T09:14:46;3.22;;;2.80;;
30515;SDS011;17297;54.022;10.760;2023-03-03T09:17:18;3.08;;;2.45;;
30515;SDS011;17297;54.022;10.760;2023-03-03T09:19:50;3.85;;;2.97;;
30515;SDS011;17297;54.022;10.760;2023-03-03T09:22:23;3.33;;;2.88;;
30515;SDS011;17297;54.022;10.760;2023-03-03T09:24:51;5.80;;;3.83;;
30515;SDS011;17297;54.022;10.760;2023-03-03T09:27:28;4.00;;;3.10;;
30515;SDS011;17297;54.022;10.760;2023-03-03T09:30:02;3.63;;;2.85;;
30515;SDS011;17297;54.022;10.760;2023-03-03T09:32:51;4.93;;;2.65;;
30515;SDS011;17297;54.022;10.760;2023-03-03T09:35:31;4.85;;;2.83;;
30515;SDS011;17297;54.022;10.760;2023-03-03T09:38:26;3.25;;;2.63;;
30515;SDS011;17297;54.022;10.760;2023-03-03T09:44:00;3.57;;;2.47;;
30515;SDS011;17297;54.022;10.760;2023-03-03T09:51:59;3.30;;;2.65;;
30515;SDS011;17297;54.022;10.760;2023-03-03T10:02:42;3.55;;;3.25;;
30515;SDS011;17297;54.022;10.760;2023-03-03T10:13:52;4.07;;;3.55;;
30515;SDS011;17297;54.022;10.760;2023-03-03T10:19:11;4.88;;;3.72;;
30515;SDS011;17297;54.022;10.760;2023-03-03T10:21:50;5.90;;;4.43;;
30515;SDS011;17297;54.022;10.760;2023-03-03T10:24:51;7.63;;;4.72;;
30515;SDS011;17297;54.022;10.760;2023-03-03T10:30:18;5.35;;;4.57;;
30515;SDS011;17297;54.022;10.760;2023-03-03T10:32:48;4.53;;;3.80;;
30515;SDS011;17297;54.022;10.760;2023-03-03T10:35:18;6.10;;;5.03;;
30515;SDS011;17297;54.022;10.760;2023-03-03T11:15:51;5.93;;;3.55;;
30515;SDS011;17297;54.022;10.760;2023-03-03T11:18:50;4.57;;;2.85;;
30515;SDS011;17297;54.022;10.760;2023-03-03T11:21:34;8.05;;;3.95;;
30515;SDS011;17297;54.022;10.760;2023-03-03T11:26:49;4.57;;;2.70;;
30515;SDS011;17297;54.022;10.760;2023-03-03T11:32:02;5.82;;;2.72;;
30515;SDS011;17297;54.022;10.760;2023-03-03T11:40:46;6.68;;;4.40;;
30515;SDS011;17297;54.022;10.760;2023-03-03T11:45:56;5.03;;;3.28;;
30515;SDS011;17297;54.022;10.760;2023-03-03T11:49:13;4.35;;;3.17;;
30515;SDS011;17297;54.022;10.760;2023-03-03T11:51:47;5.55;;;3.90;;
30515;SDS011;17297;54.022;10.760;2023-03-03T11:56:50;5.15;;;4.00;;
30515;SDS011;17297;54.022;10.760;2023-03-03T12:07:49;5.78;;;3.28;;
30515;SDS011;17297;54.022;10.760;2023-03-03T12:10:38;5.10;;;3.20;;
30515;SDS011;17297;54.022;10.760;2023-03-03T12:15:55;6.88;;;4.03;;
30515;SDS011;17297;54.022;10.760;2023-03-03T12:18:45;3.20;;;2.70;;
30515;SDS011;17297;54.022;10.760;2023-03-03T12:27:08;7.32;;;3.10;;
30515;SDS011;17297;54.022;10.760;2023-03-03T12:29:52;5.38;;;3.55;;
30515;SDS011;17297;54.022;10.760;2023-03-03T12:38:37;7.10;;;3.90;;
30515;SDS011;17297;54.022;10.760;2023-03-03T12:41:34;4.18;;;3.78;;
30515;SDS011;17297;54.022;10.760;2023-03-03T12:49:17;5.00;;;3.35;;
30515;SDS011;17297;54.022;10.760;2023-03-03T12:52:01;4.70;;;3.15;;
30515;SDS011;17297;54.022;10.760;2023-03-03T12:57:24;5.25;;;2.47;;
30515;SDS011;17297;54.022;10.760;2023-03-03T13:00:00;2.50;;;2.03;;
30515;SDS011;17297;54.022;10.760;2023-03-03T13:02:44;4.23;;;2.27;;
30515;SDS011;17297;54.022;10.760;2023-03-03T13:13:51;3.75;;;2.22;;
30515;SDS011;17297;54.022;10.760;2023-03-03T13:16:29;3.88;;;2.20;;
30515;SDS011;17297;54.022;10.760;2023-03-03T13:21:53;2.72;;;2.15;;
30515;SDS011;17297;54.022;10.760;2023-03-03T13:27:12;3.90;;;2.40;;
30515;SDS011;17297;54.022;10.760;2023-03-03T13:29:41;2.85;;;2.15;;
30515;SDS011;17297;54.022;10.760;2023-03-03T13:32:26;3.72;;;2.55;;
30515;SDS011;17297;54.022;10.760;2023-03-03T13:35:01;3.45;;;2.85;;
30515;SDS011;17297;54.022;10.760;2023-03-03T13:37:47;4.47;;;2.83;;
30515;SDS011;17297;54.022;10.760;2023-03-03T13:40:24;2.97;;;2.10;;
30515;SDS011;17297;54.022;10.760;2023-03-03T13:43:03;4.40;;;2.42;;
30515;SDS011;17297;54.022;10.760;2023-03-03T13:48:34;4.45;;;2.50;;
30515;SDS011;17297;54.022;10.760;2023-03-03T13:53:36;3.33;;;1.92;;
30515;SDS011;17297;54.022;10.760;2023-03-03T13:56:22;4.05;;;2.50;;
30515;SDS011;17297;54.022;10.760;2023-03-03T14:04:28;3.45;;;2.05;;
30515;SDS011;17297;54.022;10.760;2023-03-03T14:07:26;3.75;;;1.80;;
30515;SDS011;17297;54.022;10.760;2023-03-03T14:10:20;2.22;;;1.70;;
30515;SDS011;17297;54.022;10.760;2023-03-03T14:15:49;3.30;;;1.98;;
30515;SDS011;17297;54.022;10.760;2023-03-03T14:19:08;2.65;;;1.55;;
30515;SDS011;17297;54.022;10.760;2023-03-03T14:21:25;3.67;;;1.80;;
30515;SDS011;17297;54.022;10.760;2023-03-03T14:26:47;2.78;;;1.30;;
30515;SDS011;17297;54.022;10.760;2023-03-03T14:31:51;2.50;;;1.42;;
30515;SDS011;17297;54.022;10.760;2023-03-03T14:36:46;3.28;;;1.33;;
30515;SDS011;17297;54.022;10.760;2023-03-03T14:39:32;4.47;;;1.80;;
30515;SDS011;17297;54.022;10.760;2023-03-03T14:42:01;4.07;;;1.65;;
30515;SDS011;17297;54.022;10.760;2023-03-03T14:44:35;2.40;;;1.55;;
30515;SDS011;17297;54.022;10.760;2023-03-03T14:49:51;3.40;;;1.60;;
30515;SDS011;17297;54.022;10.760;2023-03-03T14:52:20;3.80;;;1.27;;
30515;SDS011;17297;54.022;10.760;2023-03-03T14:54:48;4.07;;;1.50;;
30515;SDS011;17297;54.022;10.760;2023-03-03T14:57:18;4.15;;;1.45;;
30515;SDS011;17297;54.022;10.760;2023-03-03T15:00:00;2.38;;;1.42;;
30515;SDS011;17297;54.022;10.760;2023-03-03T15:03:04;1.80;;;1.40;;
30515;SDS011;17297;54.022;10.760;2023-03-03T15:05:47;3.38;;;1.80;;
30515;SDS011;17297;54.022;10.760;2023-03-03T15:08:15;5.68;;;2.03;;
30515;SDS011;17297;54.022;10.760;2023-03-03T15:10:52;4.70;;;1.70;;
30515;SDS011;17297;54.022;10.760;2023-03-03T15:18:24;5.82;;;2.47;;
30515;SDS011;17297;54.022;10.760;2023-03-03T15:21:12;4.88;;;1.60;;
30515;SDS011;17297;54.022;10.760;2023-03-03T15:26:43;5.07;;;1.63;;
30515;SDS011;17297;54.022;10.760;2023-03-03T15:39:45;3.13;;;1.60;;
30515;SDS011;17297;54.022;10.760;2023-03-03T15:42:30;2.95;;;2.13;;
30515;SDS011;17297;54.022;10.760;2023-03-03T15:48:08;2.25;;;1.40;;
30515;SDS011;17297;54.022;10.760;2023-03-03T15:50:48;3.13;;;1.55;;
30515;SDS011;17297;54.022;10.760;2023-03-03T16:04:30;3.75;;;1.98;;
30515;SDS011;17297;54.022;10.760;2023-03-03T16:07:09;5.82;;;1.92;;
30515;SDS011;17297;54.022;10.760;2023-03-03T16:09:51;5.22;;;1.92;;
30515;SDS011;17297;54.022;10.760;2023-03-03T16:14:49;5.60;;;1.80;;
30515;SDS011;17297;54.022;10.760;2023-03-03T16:20:18;3.42;;;1.75;;
30515;SDS011;17297;54.022;10.760;2023-03-03T16:28:26;7.68;;;2.30;;
30515;SDS011;17297;54.022;10.760;2023-03-03T16:31:09;8.38;;;2.28;;
30515;SDS011;17297;54.022;10.760;2023-03-03T16:39:19;6.15;;;2.20;;
30515;SDS011;17297;54.022;10.760;2023-03-03T16:42:16;6.60;;;1.90;;
30515;SDS011;17297;54.022;10.760;2023-03-03T16:44:54;4.05;;;1.65;;
30515;SDS011;17297;54.022;10.760;2023-03-03T16:50:29;7.97;;;2.47;;
30515;SDS011;17297;54.022;10.760;2023-03-03T16:53:00;7.45;;;2.30;;
30515;SDS011;17297;54.022;10.760;2023-03-03T17:01:26;6.28;;;2.72;;
30515;SDS011;17297;54.022;10.760;2023-03-03T17:03:58;5.45;;;1.77;;
30515;SDS011;17297;54.022;10.760;2023-03-03T17:12:20;5.10;;;2.58;;
30515;SDS011;17297;54.022;10.760;2023-03-03T17:20:31;6.47;;;2.25;;
30515;SDS011;17297;54.022;10.760;2023-03-03T17:28:35;5.30;;;2.03;;
30515;SDS011;17297;54.022;10.760;2023-03-03T17:32:05;7.53;;;2.00;;
30515;SDS011;17297;54.022;10.760;2023-03-03T17:45:41;8.80;;;2.75;;
30515;SDS011;17297;54.022;10.760;2023-03-03T17:53:27;5.30;;;2.60;;
30515;SDS011;17297;54.022;10.760;2023-03-03T17:56:22;6.55;;;2.03;;
30515;SDS011;17297;54.022;10.760;2023-03-03T18:25:52;7.15;;;2.83;;
30515;SDS011;17297;54.022;10.760;2023-03-03T18:28:21;7.53;;;2.50;;
30515;SDS011;17297;54.022;10.760;2023-03-03T18:30:59;10.70;;;2.58;;
30515;SDS011;17297;54.022;10.760;2023-03-03T18:33:42;8.60;;;2.28;;
30515;SDS011;17297;54.022;10.760;2023-03-03T18:38:50;10.32;;;2.42;;
30515;SDS011;17297;54.022;10.760;2023-03-03T18:41:22;6.93;;;1.85;;
30515;SDS011;17297;54.022;10.760;2023-03-03T18:43:57;3.75;;;1.95;;
30515;SDS011;17297;54.022;10.760;2023-03-03T18:48:51;6.40;;;2.35;;
30515;SDS011;17297;54.022;10.760;2023-03-03T18:56:49;6.00;;;2.00;;
30515;SDS011;17297;54.022;10.760;2023-03-03T19:02:06;8.23;;;2.97;;
30515;SDS011;17297;54.022;10.760;2023-03-03T19:05:24;8.70;;;2.05;;
30515;SDS011;17297;54.022;10.760;2023-03-03T19:07:57;10.93;;;2.17;;
30515;SDS011;17297;54.022;10.760;2023-03-03T19:16:05;7.13;;;2.17;;
30515;SDS011;17297;54.022;10.760;2023-03-03T19:24:03;9.68;;;2.92;;
30515;SDS011;17297;54.022;10.760;2023-03-03T19:26:30;14.30;;;2.70;;
30515;SDS011;17297;54.022;10.760;2023-03-03T19:34:41;9.75;;;3.08;;
30515;SDS011;17297;54.022;10.760;2023-03-03T19:40:20;6.88;;;2.03;;
30515;SDS011;17297;54.022;10.760;2023-03-03T19:48:39;7.72;;;2.38;;
30515;SDS011;17297;54.022;10.760;2023-03-03T20:04:50;9.50;;;2.22;;
30515;SDS011;17297;54.022;10.760;2023-03-03T20:27:22;8.43;;;2.50;;
30515;SDS011;17297;54.022;10.760;2023-03-03T20:30:05;11.63;;;2.72;;
30515;SDS011;17297;54.022;10.760;2023-03-03T20:51:55;9.40;;;2.92;;
30515;SDS011;17297;54.022;10.760;2023-03-03T21:00:10;6.20;;;2.33;;
30515;SDS011;17297;54.022;10.760;2023-03-03T21:02:45;17.25;;;5.55;;
30515;SDS011;17297;54.022;10.760;2023-03-03T21:07:59;8.55;;;2.88;;
30515;SDS011;17297;54.022;10.760;2023-03-03T21:10:28;10.52;;;2.65;;
30515;SDS011;17297;54.022;10.760;2023-03-03T21:12:56;8.98;;;2.83;;
30515;SDS011;17297;54.022;10.760;2023-03-03T21:15:42;6.68;;;2.13;;
30515;SDS011;17297;54.022;10.760;2023-03-03T21:18:18;5.60;;;1.90;;
30515;SDS011;17297;54.022;10.760;2023-03-03T21:20:45;8.52;;;2.47;;
30515;SDS011;17297;54.022;10.760;2023-03-03T21:23:11;6.93;;;2.83;;
30515;SDS011;17297;54.022;10.760;2023-03-03T21:28:38;5.47;;;1.80;;
30515;SDS011;17297;54.022;10.760;2023-03-03T21:36:08;7.45;;;2.28;;
30515;SDS011;17297;54.022;10.760;2023-03-03T21:38:36;7.25;;;2.05;;
30515;SDS011;17297;54.022;10.760;2023-03-03T21:41:03;5.85;;;2.53;;
30515;SDS011;17297;54.022;10.760;2023-03-03T21:43:31;5.78;;;1.98;;
30515;SDS011;17297;54.022;10.760;2023-03-03T21:46:07;5.57;;;1.90;;
30515;SDS011;17297;54.022;10.760;2023-03-03T21:48:33;6.43;;;1.92;;
30515;SDS011;17297;54.022;10.760;2023-03-03T21:50:58;5.50;;;1.60;;
30515;SDS011;17297;54.022;10.760;2023-03-03T21:53:24;6.07;;;2.00;;
30515;SDS011;17297;54.022;10.760;2023-03-03T21:55:51;7.47;;;3.25;;
30515;SDS011;17297;54.022;10.760;2023-03-03T21:58:17;7.63;;;2.70;;